sensor_id;sensor_type;location;lat;lon;timestamp;P1;durP1;ratioP1;P2;durP2;ratioP2
56477;SDS011;42382;53.210;5.772;2023-05-07T00:01:06;25.33;;;18.35;;
56477;SDS011;42382;53.210;5.772;2023-05-07T00:03:32;23.48;;;17.52;;
56477;SDS011;42382;53.210;5.772;2023-05-07T00:05:58;21.67;;;17.58;;
56477;SDS011;42382;53.210;5.772;2023-05-07T00:08:23;25.58;;;18.40;;
56477;SDS011;42382;53.210;5.772;2023-05-07T00:10:49;22.90;;;17.48;;
56477;SDS011;42382;53.210;5.772;2023-05-07T00:13:15;25.63;;;19.02;;
56477;SDS011;42382;53.210;5.772;2023-05-07T00:15:40;25.10;;;18.92;;
56477;SDS011;42382;53.210;5.772;2023-05-07T00:18:06;23.05;;;18.27;;
56477;SDS011;42382;53.210;5.772;2023-05-07T00:20:31;23.75;;;18.27;;
56477;SDS011;42382;53.210;5.772;2023-05-07T00:22:57;26.50;;;19.23;;
56477;SDS011;42382;53.210;5.772;2023-05-07T00:25:23;22.33;;;17.77;;
56477;SDS011;42382;53.210;5.772;2023-05-07T00:27:48;22.80;;;18.63;;
56477;SDS011;42382;53.210;5.772;2023-05-07T00:30:14;22.45;;;17.77;;
56477;SDS011;42382;53.210;5.772;2023-05-07T00:32:40;24.35;;;18.83;;
56477;SDS011;42382;53.210;5.772;2023-05-07T00:35:06;25.45;;;19.75;;
56477;SDS011;42382;53.210;5.772;2023-05-07T00:37:32;23.00;;;18.65;;
56477;SDS011;42382;53.210;5.772;2023-05-07T00:39:58;22.98;;;18.67;;
56477;SDS011;42382;53.210;5.772;2023-05-07T00:42:24;22.60;;;18.10;;
56477;SDS011;42382;53.210;5.772;2023-05-07T00:44:50;22.95;;;17.60;;
56477;SDS011;42382;53.210;5.772;2023-05-07T00:47:16;23.38;;;18.13;;
56477;SDS011;42382;53.210;5.772;2023-05-07T00:49:42;26.23;;;19.00;;
56477;SDS011;42382;53.210;5.772;2023-05-07T00:52:10;27.17;;;19.38;;
56477;SDS011;42382;53.210;5.772;2023-05-07T00:54:38;23.35;;;18.85;;
56477;SDS011;42382;53.210;5.772;2023-05-07T00:57:05;22.40;;;17.88;;
56477;SDS011;42382;53.210;5.772;2023-05-07T00:59:31;21.40;;;17.80;;
56477;SDS011;42382;53.210;5.772;2023-05-07T01:01:58;22.75;;;18.35;;
56477;SDS011;42382;53.210;5.772;2023-05-07T01:04:25;24.20;;;19.05;;
56477;SDS011;42382;53.210;5.772;2023-05-07T01:06:51;26.15;;;18.20;;
56477;SDS011;42382;53.210;5.772;2023-05-07T01:09:20;24.35;;;18.05;;
56477;SDS011;42382;53.210;5.772;2023-05-07T01:11:47;23.30;;;18.27;;
56477;SDS011;42382;53.210;5.772;2023-05-07T01:14:15;22.73;;;17.77;;
56477;SDS011;42382;53.210;5.772;2023-05-07T01:16:41;23.60;;;18.60;;
56477;SDS011;42382;53.210;5.772;2023-05-07T01:19:11;27.77;;;18.70;;
56477;SDS011;42382;53.210;5.772;2023-05-07T01:21:41;28.08;;;18.77;;
56477;SDS011;42382;53.210;5.772;2023-05-07T01:24:11;21.40;;;17.40;;
56477;SDS011;42382;53.210;5.772;2023-05-07T01:26:37;22.33;;;18.20;;
56477;SDS011;42382;53.210;5.772;2023-05-07T01:29:03;24.67;;;18.77;;
56477;SDS011;42382;53.210;5.772;2023-05-07T01:31:29;23.20;;;17.98;;
56477;SDS011;42382;53.210;5.772;2023-05-07T01:33:55;23.35;;;17.75;;
56477;SDS011;42382;53.210;5.772;2023-05-07T01:36:23;21.85;;;17.35;;
56477;SDS011;42382;53.210;5.772;2023-05-07T01:38:52;22.65;;;17.33;;
56477;SDS011;42382;53.210;5.772;2023-05-07T01:41:18;24.55;;;18.02;;
56477;SDS011;42382;53.210;5.772;2023-05-07T01:43:44;25.92;;;16.88;;
56477;SDS011;42382;53.210;5.772;2023-05-07T01:46:12;25.45;;;18.98;;
56477;SDS011;42382;53.210;5.772;2023-05-07T01:48:39;26.95;;;19.00;;
56477;SDS011;42382;53.210;5.772;2023-05-07T01:51:05;26.38;;;19.55;;
56477;SDS011;42382;53.210;5.772;2023-05-07T01:53:40;24.30;;;18.67;;
56477;SDS011;42382;53.210;5.772;2023-05-07T01:56:06;27.88;;;19.50;;
56477;SDS011;42382;53.210;5.772;2023-05-07T01:58:32;23.08;;;18.85;;
56477;SDS011;42382;53.210;5.772;2023-05-07T02:00:58;26.38;;;19.50;;
56477;SDS011;42382;53.210;5.772;2023-05-07T02:03:24;31.15;;;22.00;;
56477;SDS011;42382;53.210;5.772;2023-05-07T02:05:50;26.08;;;20.27;;
56477;SDS011;42382;53.210;5.772;2023-05-07T02:08:16;24.13;;;20.05;;
56477;SDS011;42382;53.210;5.772;2023-05-07T02:10:41;26.00;;;20.48;;
56477;SDS011;42382;53.210;5.772;2023-05-07T02:13:07;27.80;;;21.27;;
56477;SDS011;42382;53.210;5.772;2023-05-07T02:15:33;27.25;;;21.05;;
56477;SDS011;42382;53.210;5.772;2023-05-07T02:18:03;27.20;;;20.65;;
56477;SDS011;42382;53.210;5.772;2023-05-07T02:20:32;31.52;;;22.33;;
56477;SDS011;42382;53.210;5.772;2023-05-07T02:22:58;31.70;;;22.95;;
56477;SDS011;42382;53.210;5.772;2023-05-07T02:25:23;27.02;;;22.15;;
56477;SDS011;42382;53.210;5.772;2023-05-07T02:27:49;28.73;;;21.65;;
56477;SDS011;42382;53.210;5.772;2023-05-07T02:30:15;31.73;;;24.30;;
56477;SDS011;42382;53.210;5.772;2023-05-07T02:32:40;26.38;;;21.90;;
56477;SDS011;42382;53.210;5.772;2023-05-07T02:35:06;28.95;;;21.83;;
56477;SDS011;42382;53.210;5.772;2023-05-07T02:37:32;27.85;;;22.30;;
56477;SDS011;42382;53.210;5.772;2023-05-07T02:39:58;30.95;;;22.98;;
56477;SDS011;42382;53.210;5.772;2023-05-07T02:42:23;29.13;;;23.20;;
56477;SDS011;42382;53.210;5.772;2023-05-07T02:44:49;30.23;;;23.08;;
56477;SDS011;42382;53.210;5.772;2023-05-07T02:47:14;32.10;;;22.98;;
56477;SDS011;42382;53.210;5.772;2023-05-07T02:49:40;29.42;;;22.23;;
56477;SDS011;42382;53.210;5.772;2023-05-07T02:52:06;27.95;;;22.13;;
56477;SDS011;42382;53.210;5.772;2023-05-07T02:54:32;31.67;;;22.20;;
56477;SDS011;42382;53.210;5.772;2023-05-07T02:56:58;33.00;;;24.13;;
56477;SDS011;42382;53.210;5.772;2023-05-07T02:59:25;29.27;;;22.48;;
56477;SDS011;42382;53.210;5.772;2023-05-07T03:01:51;30.90;;;23.15;;
56477;SDS011;42382;53.210;5.772;2023-05-07T03:04:20;31.15;;;21.63;;
56477;SDS011;42382;53.210;5.772;2023-05-07T03:06:45;30.05;;;23.45;;
56477;SDS011;42382;53.210;5.772;2023-05-07T03:09:11;31.17;;;22.25;;
56477;SDS011;42382;53.210;5.772;2023-05-07T03:11:37;32.58;;;24.05;;
56477;SDS011;42382;53.210;5.772;2023-05-07T03:14:02;30.13;;;23.85;;
56477;SDS011;42382;53.210;5.772;2023-05-07T03:16:28;32.70;;;24.48;;
56477;SDS011;42382;53.210;5.772;2023-05-07T03:18:53;31.77;;;23.48;;
56477;SDS011;42382;53.210;5.772;2023-05-07T03:21:19;30.65;;;23.65;;
56477;SDS011;42382;53.210;5.772;2023-05-07T03:23:45;31.10;;;23.60;;
56477;SDS011;42382;53.210;5.772;2023-05-07T03:26:10;28.73;;;23.15;;
56477;SDS011;42382;53.210;5.772;2023-05-07T03:28:36;36.33;;;26.67;;
56477;SDS011;42382;53.210;5.772;2023-05-07T03:31:02;31.73;;;24.05;;
56477;SDS011;42382;53.210;5.772;2023-05-07T03:33:28;32.97;;;25.15;;
56477;SDS011;42382;53.210;5.772;2023-05-07T03:35:53;32.08;;;24.33;;
56477;SDS011;42382;53.210;5.772;2023-05-07T03:38:19;30.92;;;25.05;;
56477;SDS011;42382;53.210;5.772;2023-05-07T03:40:45;33.92;;;24.85;;
56477;SDS011;42382;53.210;5.772;2023-05-07T03:43:10;31.45;;;24.23;;
56477;SDS011;42382;53.210;5.772;2023-05-07T03:45:36;30.77;;;23.45;;
56477;SDS011;42382;53.210;5.772;2023-05-07T03:48:01;33.45;;;25.10;;
56477;SDS011;42382;53.210;5.772;2023-05-07T03:50:27;33.35;;;25.77;;
56477;SDS011;42382;53.210;5.772;2023-05-07T03:52:53;32.00;;;24.10;;
56477;SDS011;42382;53.210;5.772;2023-05-07T03:55:18;35.20;;;25.17;;
56477;SDS011;42382;53.210;5.772;2023-05-07T03:57:44;35.03;;;25.88;;
56477;SDS011;42382;53.210;5.772;2023-05-07T04:00:10;32.05;;;24.88;;
56477;SDS011;42382;53.210;5.772;2023-05-07T04:02:36;33.47;;;25.15;;
56477;SDS011;42382;53.210;5.772;2023-05-07T04:05:01;31.42;;;25.27;;
56477;SDS011;42382;53.210;5.772;2023-05-07T04:07:27;34.33;;;25.27;;
56477;SDS011;42382;53.210;5.772;2023-05-07T04:09:53;39.72;;;27.17;;
56477;SDS011;42382;53.210;5.772;2023-05-07T04:12:18;38.90;;;27.60;;
56477;SDS011;42382;53.210;5.772;2023-05-07T04:14:44;36.40;;;26.98;;
56477;SDS011;42382;53.210;5.772;2023-05-07T04:17:10;36.25;;;26.27;;
56477;SDS011;42382;53.210;5.772;2023-05-07T04:19:35;35.97;;;26.70;;
56477;SDS011;42382;53.210;5.772;2023-05-07T04:22:01;41.03;;;28.15;;
56477;SDS011;42382;53.210;5.772;2023-05-07T04:24:27;38.55;;;27.08;;
56477;SDS011;42382;53.210;5.772;2023-05-07T04:26:52;38.65;;;27.77;;
56477;SDS011;42382;53.210;5.772;2023-05-07T04:29:20;35.85;;;26.83;;
56477;SDS011;42382;53.210;5.772;2023-05-07T04:31:46;33.10;;;27.35;;
56477;SDS011;42382;53.210;5.772;2023-05-07T04:34:11;33.47;;;25.60;;
56477;SDS011;42382;53.210;5.772;2023-05-07T04:36:37;36.10;;;26.90;;
56477;SDS011;42382;53.210;5.772;2023-05-07T04:39:03;40.22;;;28.27;;
56477;SDS011;42382;53.210;5.772;2023-05-07T04:41:29;40.63;;;28.98;;
56477;SDS011;42382;53.210;5.772;2023-05-07T04:43:55;42.17;;;28.65;;
56477;SDS011;42382;53.210;5.772;2023-05-07T04:46:21;38.25;;;27.35;;
56477;SDS011;42382;53.210;5.772;2023-05-07T04:48:48;40.85;;;30.27;;
56477;SDS011;42382;53.210;5.772;2023-05-07T04:51:14;38.67;;;27.25;;
56477;SDS011;42382;53.210;5.772;2023-05-07T04:53:40;37.67;;;29.20;;
56477;SDS011;42382;53.210;5.772;2023-05-07T04:56:06;43.85;;;30.02;;
56477;SDS011;42382;53.210;5.772;2023-05-07T04:58:32;38.35;;;28.77;;
56477;SDS011;42382;53.210;5.772;2023-05-07T05:00:58;37.95;;;27.98;;
56477;SDS011;42382;53.210;5.772;2023-05-07T05:03:25;39.38;;;29.33;;
56477;SDS011;42382;53.210;5.772;2023-05-07T05:05:51;41.80;;;29.10;;
56477;SDS011;42382;53.210;5.772;2023-05-07T05:08:17;43.33;;;30.13;;
56477;SDS011;42382;53.210;5.772;2023-05-07T05:10:42;42.17;;;29.88;;
56477;SDS011;42382;53.210;5.772;2023-05-07T05:13:08;41.75;;;30.65;;
56477;SDS011;42382;53.210;5.772;2023-05-07T05:15:34;44.50;;;31.63;;
56477;SDS011;42382;53.210;5.772;2023-05-07T05:18:00;40.97;;;29.25;;
56477;SDS011;42382;53.210;5.772;2023-05-07T05:20:26;41.80;;;30.27;;
56477;SDS011;42382;53.210;5.772;2023-05-07T05:22:52;44.58;;;30.27;;
56477;SDS011;42382;53.210;5.772;2023-05-07T05:25:17;47.90;;;30.88;;
56477;SDS011;42382;53.210;5.772;2023-05-07T05:27:43;43.60;;;29.95;;
56477;SDS011;42382;53.210;5.772;2023-05-07T05:30:08;46.03;;;31.10;;
56477;SDS011;42382;53.210;5.772;2023-05-07T05:32:35;40.20;;;29.45;;
56477;SDS011;42382;53.210;5.772;2023-05-07T05:35:00;45.67;;;31.83;;
56477;SDS011;42382;53.210;5.772;2023-05-07T05:37:26;45.83;;;30.95;;
56477;SDS011;42382;53.210;5.772;2023-05-07T05:39:52;52.08;;;30.83;;
56477;SDS011;42382;53.210;5.772;2023-05-07T05:42:19;44.67;;;31.70;;
56477;SDS011;42382;53.210;5.772;2023-05-07T05:44:45;46.42;;;31.95;;
56477;SDS011;42382;53.210;5.772;2023-05-07T05:47:11;47.10;;;32.55;;
56477;SDS011;42382;53.210;5.772;2023-05-07T05:49:36;47.72;;;32.67;;
56477;SDS011;42382;53.210;5.772;2023-05-07T05:52:02;44.08;;;30.60;;
56477;SDS011;42382;53.210;5.772;2023-05-07T05:54:28;44.08;;;31.02;;
56477;SDS011;42382;53.210;5.772;2023-05-07T05:56:53;43.95;;;31.13;;
56477;SDS011;42382;53.210;5.772;2023-05-07T05:59:19;49.90;;;32.42;;
56477;SDS011;42382;53.210;5.772;2023-05-07T06:01:45;45.55;;;31.33;;
56477;SDS011;42382;53.210;5.772;2023-05-07T06:04:10;44.03;;;31.80;;
56477;SDS011;42382;53.210;5.772;2023-05-07T06:06:36;46.75;;;32.08;;
56477;SDS011;42382;53.210;5.772;2023-05-07T06:09:02;45.17;;;31.13;;
56477;SDS011;42382;53.210;5.772;2023-05-07T06:11:27;42.50;;;30.55;;
56477;SDS011;42382;53.210;5.772;2023-05-07T06:13:53;41.70;;;30.23;;
56477;SDS011;42382;53.210;5.772;2023-05-07T06:16:19;43.58;;;31.38;;
56477;SDS011;42382;53.210;5.772;2023-05-07T06:18:47;43.70;;;30.63;;
56477;SDS011;42382;53.210;5.772;2023-05-07T06:21:13;43.20;;;31.17;;
56477;SDS011;42382;53.210;5.772;2023-05-07T06:23:40;46.75;;;30.95;;
56477;SDS011;42382;53.210;5.772;2023-05-07T06:26:06;43.53;;;30.58;;
56477;SDS011;42382;53.210;5.772;2023-05-07T06:28:32;44.60;;;30.38;;
56477;SDS011;42382;53.210;5.772;2023-05-07T06:31:16;46.78;;;31.55;;
56477;SDS011;42382;53.210;5.772;2023-05-07T06:33:45;42.30;;;29.75;;
56477;SDS011;42382;53.210;5.772;2023-05-07T06:36:11;49.67;;;31.15;;
56477;SDS011;42382;53.210;5.772;2023-05-07T06:38:37;41.78;;;29.63;;
56477;SDS011;42382;53.210;5.772;2023-05-07T06:41:02;38.30;;;29.05;;
56477;SDS011;42382;53.210;5.772;2023-05-07T06:43:28;39.53;;;27.65;;
56477;SDS011;42382;53.210;5.772;2023-05-07T06:45:54;43.50;;;30.75;;
56477;SDS011;42382;53.210;5.772;2023-05-07T06:48:19;41.45;;;28.48;;
56477;SDS011;42382;53.210;5.772;2023-05-07T06:50:45;38.15;;;27.95;;
56477;SDS011;42382;53.210;5.772;2023-05-07T06:53:11;39.00;;;27.92;;
56477;SDS011;42382;53.210;5.772;2023-05-07T06:55:36;35.05;;;26.50;;
56477;SDS011;42382;53.210;5.772;2023-05-07T06:58:03;36.97;;;26.98;;
56477;SDS011;42382;53.210;5.772;2023-05-07T07:00:29;34.38;;;26.83;;
56477;SDS011;42382;53.210;5.772;2023-05-07T07:02:56;39.55;;;27.17;;
56477;SDS011;42382;53.210;5.772;2023-05-07T07:05:21;39.05;;;27.92;;
56477;SDS011;42382;53.210;5.772;2023-05-07T07:07:47;36.42;;;26.05;;
56477;SDS011;42382;53.210;5.772;2023-05-07T07:10:18;33.88;;;25.65;;
56477;SDS011;42382;53.210;5.772;2023-05-07T07:12:47;38.00;;;26.90;;
56477;SDS011;42382;53.210;5.772;2023-05-07T07:15:14;37.15;;;26.52;;
56477;SDS011;42382;53.210;5.772;2023-05-07T07:17:40;34.03;;;25.58;;
56477;SDS011;42382;53.210;5.772;2023-05-07T07:20:05;33.28;;;26.42;;
56477;SDS011;42382;53.210;5.772;2023-05-07T07:22:32;34.90;;;26.25;;
56477;SDS011;42382;53.210;5.772;2023-05-07T07:24:57;38.20;;;26.67;;
56477;SDS011;42382;53.210;5.772;2023-05-07T07:27:23;37.83;;;26.35;;
56477;SDS011;42382;53.210;5.772;2023-05-07T07:29:49;34.97;;;26.38;;
56477;SDS011;42382;53.210;5.772;2023-05-07T07:32:15;35.40;;;24.95;;
56477;SDS011;42382;53.210;5.772;2023-05-07T07:34:40;34.80;;;26.05;;
56477;SDS011;42382;53.210;5.772;2023-05-07T07:37:06;32.40;;;24.58;;
56477;SDS011;42382;53.210;5.772;2023-05-07T07:39:32;31.13;;;23.92;;
56477;SDS011;42382;53.210;5.772;2023-05-07T07:41:58;32.22;;;25.30;;
56477;SDS011;42382;53.210;5.772;2023-05-07T07:44:24;31.25;;;23.27;;
56477;SDS011;42382;53.210;5.772;2023-05-07T07:46:50;37.30;;;25.77;;
56477;SDS011;42382;53.210;5.772;2023-05-07T07:49:15;33.28;;;24.45;;
56477;SDS011;42382;53.210;5.772;2023-05-07T07:51:41;30.75;;;23.15;;
56477;SDS011;42382;53.210;5.772;2023-05-07T07:54:07;29.08;;;23.13;;
56477;SDS011;42382;53.210;5.772;2023-05-07T07:56:33;32.67;;;22.95;;
56477;SDS011;42382;53.210;5.772;2023-05-07T07:58:59;31.13;;;23.63;;
56477;SDS011;42382;53.210;5.772;2023-05-07T08:01:25;32.50;;;23.45;;
56477;SDS011;42382;53.210;5.772;2023-05-07T08:03:51;28.23;;;22.60;;
56477;SDS011;42382;53.210;5.772;2023-05-07T08:06:17;28.33;;;21.75;;
56477;SDS011;42382;53.210;5.772;2023-05-07T08:08:43;29.52;;;22.75;;
56477;SDS011;42382;53.210;5.772;2023-05-07T08:11:08;30.77;;;23.00;;
56477;SDS011;42382;53.210;5.772;2023-05-07T08:13:34;27.05;;;22.65;;
56477;SDS011;42382;53.210;5.772;2023-05-07T08:16:00;30.50;;;22.67;;
56477;SDS011;42382;53.210;5.772;2023-05-07T08:18:25;24.88;;;20.85;;
56477;SDS011;42382;53.210;5.772;2023-05-07T08:20:53;28.50;;;21.42;;
56477;SDS011;42382;53.210;5.772;2023-05-07T08:23:19;24.05;;;20.00;;
56477;SDS011;42382;53.210;5.772;2023-05-07T08:25:45;22.90;;;19.98;;
56477;SDS011;42382;53.210;5.772;2023-05-07T08:28:11;25.98;;;19.65;;
56477;SDS011;42382;53.210;5.772;2023-05-07T08:30:36;26.38;;;21.23;;
56477;SDS011;42382;53.210;5.772;2023-05-07T08:33:02;23.52;;;19.42;;
56477;SDS011;42382;53.210;5.772;2023-05-07T08:35:27;24.33;;;19.60;;
56477;SDS011;42382;53.210;5.772;2023-05-07T08:37:53;25.08;;;19.35;;
56477;SDS011;42382;53.210;5.772;2023-05-07T08:40:20;24.17;;;20.02;;
56477;SDS011;42382;53.210;5.772;2023-05-07T08:42:49;25.52;;;20.58;;
56477;SDS011;42382;53.210;5.772;2023-05-07T08:45:17;24.75;;;19.55;;
56477;SDS011;42382;53.210;5.772;2023-05-07T08:47:46;26.10;;;19.83;;
56477;SDS011;42382;53.210;5.772;2023-05-07T08:50:15;25.33;;;19.77;;
56477;SDS011;42382;53.210;5.772;2023-05-07T08:52:41;22.30;;;19.50;;
56477;SDS011;42382;53.210;5.772;2023-05-07T08:55:08;22.20;;;19.38;;
56477;SDS011;42382;53.210;5.772;2023-05-07T08:57:34;25.67;;;20.33;;
56477;SDS011;42382;53.210;5.772;2023-05-07T09:00:01;24.63;;;18.42;;
56477;SDS011;42382;53.210;5.772;2023-05-07T09:02:28;21.27;;;18.52;;
56477;SDS011;42382;53.210;5.772;2023-05-07T09:04:54;22.63;;;17.58;;
56477;SDS011;42382;53.210;5.772;2023-05-07T09:07:23;22.45;;;18.65;;
56477;SDS011;42382;53.210;5.772;2023-05-07T09:09:49;21.83;;;18.00;;
56477;SDS011;42382;53.210;5.772;2023-05-07T09:12:15;21.92;;;18.80;;
56477;SDS011;42382;53.210;5.772;2023-05-07T09:14:42;19.73;;;17.17;;
56477;SDS011;42382;53.210;5.772;2023-05-07T09:17:08;18.75;;;15.98;;
56477;SDS011;42382;53.210;5.772;2023-05-07T09:19:33;19.00;;;16.50;;
56477;SDS011;42382;53.210;5.772;2023-05-07T09:22:03;20.85;;;16.80;;
56477;SDS011;42382;53.210;5.772;2023-05-07T09:24:30;22.65;;;17.38;;
56477;SDS011;42382;53.210;5.772;2023-05-07T09:27:00;18.75;;;16.52;;
56477;SDS011;42382;53.210;5.772;2023-05-07T09:29:27;20.23;;;17.40;;
56477;SDS011;42382;53.210;5.772;2023-05-07T09:31:55;20.33;;;16.77;;
56477;SDS011;42382;53.210;5.772;2023-05-07T09:34:21;19.90;;;17.25;;
56477;SDS011;42382;53.210;5.772;2023-05-07T09:36:47;22.13;;;18.02;;
56477;SDS011;42382;53.210;5.772;2023-05-07T09:39:13;21.95;;;17.45;;
56477;SDS011;42382;53.210;5.772;2023-05-07T09:41:48;20.50;;;18.02;;
56477;SDS011;42382;53.210;5.772;2023-05-07T09:44:14;19.50;;;17.50;;
56477;SDS011;42382;53.210;5.772;2023-05-07T09:46:42;23.88;;;18.05;;
56477;SDS011;42382;53.210;5.772;2023-05-07T09:49:11;21.63;;;18.35;;
56477;SDS011;42382;53.210;5.772;2023-05-07T09:51:45;22.45;;;18.02;;
56477;SDS011;42382;53.210;5.772;2023-05-07T09:54:14;25.52;;;18.65;;
56477;SDS011;42382;53.210;5.772;2023-05-07T09:56:40;23.10;;;18.60;;
56477;SDS011;42382;53.210;5.772;2023-05-07T09:59:08;22.42;;;18.85;;
56477;SDS011;42382;53.210;5.772;2023-05-07T10:01:37;22.48;;;18.42;;
56477;SDS011;42382;53.210;5.772;2023-05-07T10:04:05;20.17;;;18.00;;
56477;SDS011;42382;53.210;5.772;2023-05-07T10:06:33;21.88;;;18.60;;
56477;SDS011;42382;53.210;5.772;2023-05-07T10:09:00;20.98;;;18.40;;
56477;SDS011;42382;53.210;5.772;2023-05-07T10:11:26;20.48;;;17.90;;
56477;SDS011;42382;53.210;5.772;2023-05-07T10:13:53;19.50;;;16.90;;
56477;SDS011;42382;53.210;5.772;2023-05-07T10:16:20;20.25;;;17.50;;
56477;SDS011;42382;53.210;5.772;2023-05-07T10:18:47;20.60;;;18.40;;
56477;SDS011;42382;53.210;5.772;2023-05-07T10:21:20;21.08;;;17.10;;
56477;SDS011;42382;53.210;5.772;2023-05-07T10:23:51;19.35;;;16.52;;
56477;SDS011;42382;53.210;5.772;2023-05-07T10:26:23;19.92;;;17.80;;
56477;SDS011;42382;53.210;5.772;2023-05-07T10:28:59;20.55;;;17.73;;
56477;SDS011;42382;53.210;5.772;2023-05-07T10:34:20;20.08;;;17.85;;
56477;SDS011;42382;53.210;5.772;2023-05-07T10:36:49;20.65;;;18.33;;
56477;SDS011;42382;53.210;5.772;2023-05-07T10:39:16;20.48;;;17.27;;
56477;SDS011;42382;53.210;5.772;2023-05-07T10:41:42;22.40;;;17.10;;
56477;SDS011;42382;53.210;5.772;2023-05-07T10:44:08;20.05;;;17.85;;
56477;SDS011;42382;53.210;5.772;2023-05-07T10:46:34;19.38;;;16.85;;
56477;SDS011;42382;53.210;5.772;2023-05-07T10:51:26;19.15;;;17.17;;
56477;SDS011;42382;53.210;5.772;2023-05-07T10:56:39;20.23;;;17.02;;
56477;SDS011;42382;53.210;5.772;2023-05-07T10:59:30;19.42;;;17.33;;
56477;SDS011;42382;53.210;5.772;2023-05-07T11:02:00;21.48;;;17.80;;
56477;SDS011;42382;53.210;5.772;2023-05-07T11:04:31;20.15;;;17.67;;
56477;SDS011;42382;53.210;5.772;2023-05-07T11:07:45;19.00;;;17.02;;
56477;SDS011;42382;53.210;5.772;2023-05-07T11:10:11;20.52;;;18.23;;
56477;SDS011;42382;53.210;5.772;2023-05-07T11:15:09;19.75;;;17.67;;
56477;SDS011;42382;53.210;5.772;2023-05-07T11:17:55;22.27;;;17.42;;
56477;SDS011;42382;53.210;5.772;2023-05-07T11:25:43;20.75;;;17.15;;
56477;SDS011;42382;53.210;5.772;2023-05-07T11:28:09;20.83;;;18.10;;
56477;SDS011;42382;53.210;5.772;2023-05-07T11:30:35;23.23;;;19.17;;
56477;SDS011;42382;53.210;5.772;2023-05-07T11:33:01;21.02;;;18.77;;
56477;SDS011;42382;53.210;5.772;2023-05-07T11:35:28;19.52;;;17.42;;
56477;SDS011;42382;53.210;5.772;2023-05-07T11:37:57;22.50;;;18.33;;
56477;SDS011;42382;53.210;5.772;2023-05-07T11:40:25;23.30;;;18.77;;
56477;SDS011;42382;53.210;5.772;2023-05-07T11:42:50;20.10;;;17.90;;
56477;SDS011;42382;53.210;5.772;2023-05-07T11:45:22;20.05;;;17.95;;
56477;SDS011;42382;53.210;5.772;2023-05-07T11:47:50;21.48;;;17.35;;
56477;SDS011;42382;53.210;5.772;2023-05-07T11:50:15;21.08;;;17.10;;
56477;SDS011;42382;53.210;5.772;2023-05-07T11:52:49;19.30;;;17.23;;
56477;SDS011;42382;53.210;5.772;2023-05-07T11:55:17;20.50;;;18.25;;
56477;SDS011;42382;53.210;5.772;2023-05-07T11:57:43;20.42;;;17.73;;
56477;SDS011;42382;53.210;5.772;2023-05-07T12:00:10;21.83;;;18.60;;
56477;SDS011;42382;53.210;5.772;2023-05-07T12:02:36;22.15;;;18.00;;
56477;SDS011;42382;53.210;5.772;2023-05-07T12:05:01;18.45;;;16.45;;
56477;SDS011;42382;53.210;5.772;2023-05-07T12:07:27;20.63;;;17.77;;
56477;SDS011;42382;53.210;5.772;2023-05-07T12:09:53;20.30;;;16.65;;
56477;SDS011;42382;53.210;5.772;2023-05-07T12:12:19;20.38;;;17.65;;
56477;SDS011;42382;53.210;5.772;2023-05-07T12:14:45;19.45;;;16.55;;
56477;SDS011;42382;53.210;5.772;2023-05-07T12:17:12;21.67;;;19.25;;
56477;SDS011;42382;53.210;5.772;2023-05-07T12:19:39;19.08;;;17.10;;
56477;SDS011;42382;53.210;5.772;2023-05-07T12:22:07;20.65;;;17.80;;
56477;SDS011;42382;53.210;5.772;2023-05-07T12:24:47;20.58;;;17.63;;
56477;SDS011;42382;53.210;5.772;2023-05-07T12:27:22;17.55;;;15.75;;
56477;SDS011;42382;53.210;5.772;2023-05-07T12:29:48;21.48;;;17.55;;
56477;SDS011;42382;53.210;5.772;2023-05-07T12:32:15;19.50;;;16.23;;
56477;SDS011;42382;53.210;5.772;2023-05-07T12:34:43;18.70;;;16.70;;
56477;SDS011;42382;53.210;5.772;2023-05-07T12:37:09;19.80;;;17.45;;
56477;SDS011;42382;53.210;5.772;2023-05-07T12:39:35;19.15;;;16.08;;
56477;SDS011;42382;53.210;5.772;2023-05-07T12:42:01;19.40;;;16.23;;
56477;SDS011;42382;53.210;5.772;2023-05-07T12:44:31;17.77;;;15.50;;
56477;SDS011;42382;53.210;5.772;2023-05-07T12:46:57;20.02;;;16.75;;
56477;SDS011;42382;53.210;5.772;2023-05-07T12:49:26;17.63;;;15.68;;
56477;SDS011;42382;53.210;5.772;2023-05-07T12:51:51;19.27;;;15.20;;
56477;SDS011;42382;53.210;5.772;2023-05-07T12:54:28;17.90;;;15.35;;
56477;SDS011;42382;53.210;5.772;2023-05-07T12:57:05;15.95;;;14.27;;
56477;SDS011;42382;53.210;5.772;2023-05-07T13:02:07;18.00;;;14.88;;
56477;SDS011;42382;53.210;5.772;2023-05-07T13:04:33;17.58;;;15.48;;
56477;SDS011;42382;53.210;5.772;2023-05-07T13:06:59;15.65;;;13.98;;
56477;SDS011;42382;53.210;5.772;2023-05-07T13:09:25;17.88;;;14.63;;
56477;SDS011;42382;53.210;5.772;2023-05-07T13:11:52;16.23;;;13.65;;
56477;SDS011;42382;53.210;5.772;2023-05-07T13:14:18;15.32;;;13.25;;
56477;SDS011;42382;53.210;5.772;2023-05-07T13:16:45;17.65;;;15.15;;
56477;SDS011;42382;53.210;5.772;2023-05-07T13:19:11;15.68;;;14.02;;
56477;SDS011;42382;53.210;5.772;2023-05-07T13:21:37;14.77;;;12.52;;
56477;SDS011;42382;53.210;5.772;2023-05-07T13:24:03;16.17;;;13.40;;
56477;SDS011;42382;53.210;5.772;2023-05-07T13:26:29;14.95;;;13.07;;
56477;SDS011;42382;53.210;5.772;2023-05-07T13:28:58;14.05;;;12.55;;
56477;SDS011;42382;53.210;5.772;2023-05-07T13:31:24;14.30;;;12.80;;
56477;SDS011;42382;53.210;5.772;2023-05-07T13:33:50;16.02;;;12.10;;
56477;SDS011;42382;53.210;5.772;2023-05-07T13:36:15;13.82;;;12.43;;
56477;SDS011;42382;53.210;5.772;2023-05-07T13:38:41;15.90;;;14.13;;
56477;SDS011;42382;53.210;5.772;2023-05-07T13:41:07;13.82;;;11.75;;
56477;SDS011;42382;53.210;5.772;2023-05-07T13:43:32;15.38;;;12.80;;
56477;SDS011;42382;53.210;5.772;2023-05-07T13:45:58;14.88;;;13.27;;
56477;SDS011;42382;53.210;5.772;2023-05-07T13:48:24;15.80;;;13.75;;
56477;SDS011;42382;53.210;5.772;2023-05-07T13:50:50;15.60;;;14.00;;
56477;SDS011;42382;53.210;5.772;2023-05-07T13:53:16;15.98;;;13.02;;
56477;SDS011;42382;53.210;5.772;2023-05-07T13:55:43;15.57;;;13.70;;
56477;SDS011;42382;53.210;5.772;2023-05-07T13:58:09;25.75;;;18.00;;
56477;SDS011;42382;53.210;5.772;2023-05-07T14:00:35;17.33;;;15.13;;
56477;SDS011;42382;53.210;5.772;2023-05-07T14:03:01;26.92;;;20.27;;
56477;SDS011;42382;53.210;5.772;2023-05-07T14:05:27;21.52;;;17.48;;
56477;SDS011;42382;53.210;5.772;2023-05-07T14:07:58;15.00;;;13.38;;
56477;SDS011;42382;53.210;5.772;2023-05-07T14:10:24;18.40;;;16.50;;
56477;SDS011;42382;53.210;5.772;2023-05-07T14:12:49;18.40;;;14.40;;
56477;SDS011;42382;53.210;5.772;2023-05-07T14:15:15;14.13;;;12.63;;
56477;SDS011;42382;53.210;5.772;2023-05-07T14:17:41;16.83;;;14.43;;
56477;SDS011;42382;53.210;5.772;2023-05-07T14:20:08;15.07;;;13.48;;
56477;SDS011;42382;53.210;5.772;2023-05-07T14:22:35;15.25;;;13.70;;
56477;SDS011;42382;53.210;5.772;2023-05-07T14:25:01;16.63;;;14.70;;
56477;SDS011;42382;53.210;5.772;2023-05-07T14:27:26;16.08;;;14.48;;
56477;SDS011;42382;53.210;5.772;2023-05-07T14:29:52;14.23;;;12.82;;
56477;SDS011;42382;53.210;5.772;2023-05-07T14:32:17;14.45;;;12.25;;
56477;SDS011;42382;53.210;5.772;2023-05-07T14:34:43;14.48;;;12.98;;
56477;SDS011;42382;53.210;5.772;2023-05-07T14:37:10;14.77;;;13.27;;